sensor_id;sensor_type;location;lat;lon;timestamp;P1;P2;P0
14880;PMS7003;7533;51.278;12.588;2022-12-07T00:02:58;2.00;2.00;1.00
14880;PMS7003;7533;51.278;12.588;2022-12-07T00:08:01;3.00;2.50;1.00
14880;PMS7003;7533;51.278;12.588;2022-12-07T00:13:06;2.00;2.00;1.00
14880;PMS7003;7533;51.278;12.588;2022-12-07T00:18:08;2.00;2.00;1.00
14880;PMS7003;7533;51.278;12.588;2022-12-07T00:23:11;2.00;2.00;1.00
14880;PMS7003;7533;51.278;12.588;2022-12-07T00:28:16;2.00;2.00;1.00
14880;PMS7003;7533;51.278;12.588;2022-12-07T00:33:18;1.75;1.75;1.00
14880;PMS7003;7533;51.278;12.588;2022-12-07T00:38:21;2.00;2.00;1.00
14880;PMS7003;7533;51.278;12.588;2022-12-07T00:43:26;2.00;2.00;1.00
14880;PMS7003;7533;51.278;12.588;2022-12-07T00:48:29;3.00;2.00;1.25
14880;PMS7003;7533;51.278;12.588;2022-12-07T00:53:33;2.50;2.50;1.00
14880;PMS7003;7533;51.278;12.588;2022-12-07T00:58:43;3.50;3.00;1.00
14880;PMS7003;7533;51.278;12.588;2022-12-07T01:03:46;2.75;2.75;1.25
14880;PMS7003;7533;51.278;12.588;2022-12-07T01:08:49;2.75;2.00;1.00
14880;PMS7003;7533;51.278;12.588;2022-12-07T01:13:54;3.75;3.00;1.00
14880;PMS7003;7533;51.278;12.588;2022-12-07T01:18:59;3.00;2.50;1.00
14880;PMS7003;7533;51.278;12.588;2022-12-07T01:24:03;2.00;2.00;0.00
14880;PMS7003;7533;51.278;12.588;2022-12-07T01:29:09;2.00;2.00;1.00
14880;PMS7003;7533;51.278;12.588;2022-12-07T01:34:12;2.00;2.00;1.00
14880;PMS7003;7533;51.278;12.588;2022-12-07T01:39:15;4.00;3.00;1.00
14880;PMS7003;7533;51.278;12.588;2022-12-07T01:44:21;3.25;2.50;1.00
14880;PMS7003;7533;51.278;12.588;2022-12-07T01:49:26;1.75;1.00;0.00
14880;PMS7003;7533;51.278;12.588;2022-12-07T01:54:31;2.00;2.00;0.75
14880;PMS7003;7533;51.278;12.588;2022-12-07T01:59:38;2.25;2.00;1.00
14880;PMS7003;7533;51.278;12.588;2022-12-07T02:04:41;4.00;2.00;1.00
14880;PMS7003;7533;51.278;12.588;2022-12-07T02:09:45;0.75;0.75;0.00
14880;PMS7003;7533;51.278;12.588;2022-12-07T02:14:49;2.75;2.50;1.00
14880;PMS7003;7533;51.278;12.588;2022-12-07T02:20:02;1.00;1.00;0.00
14880;PMS7003;7533;51.278;12.588;2022-12-07T02:25:14;3.00;3.00;1.00
14880;PMS7003;7533;51.278;12.588;2022-12-07T02:30:28;2.00;2.00;0.50
14880;PMS7003;7533;51.278;12.588;2022-12-07T02:35:35;2.00;1.50;0.50
14880;PMS7003;7533;51.278;12.588;2022-12-07T02:40:44;3.00;2.00;1.00
14880;PMS7003;7533;51.278;12.588;2022-12-07T02:45:54;2.25;2.00;0.50
14880;PMS7003;7533;51.278;12.588;2022-12-07T02:51:04;2.00;2.00;0.50
14880;PMS7003;7533;51.278;12.588;2022-12-07T02:56:09;4.75;2.75;1.00
14880;PMS7003;7533;51.278;12.588;2022-12-07T03:01:24;2.25;2.00;1.00
14880;PMS7003;7533;51.278;12.588;2022-12-07T03:06:34;3.00;2.25;1.00
14880;PMS7003;7533;51.278;12.588;2022-12-07T03:11:45;3.00;3.00;1.00
14880;PMS7003;7533;51.278;12.588;2022-12-07T03:16:53;1.00;1.00;0.00
14880;PMS7003;7533;51.278;12.588;2022-12-07T03:22:02;2.00;2.00;0.50
14880;PMS7003;7533;51.278;12.588;2022-12-07T03:27:09;1.25;1.25;0.75
14880;PMS7003;7533;51.278;12.588;2022-12-07T03:32:21;1.00;1.00;0.00
14880;PMS7003;7533;51.278;12.588;2022-12-07T03:37:33;3.00;2.00;0.75
14880;PMS7003;7533;51.278;12.588;2022-12-07T03:42:39;2.00;2.00;0.50
14880;PMS7003;7533;51.278;12.588;2022-12-07T03:47:45;1.75;1.75;0.00
14880;PMS7003;7533;51.278;12.588;2022-12-07T03:52:52;2.75;2.75;1.00
14880;PMS7003;7533;51.278;12.588;2022-12-07T03:57:58;1.75;1.75;1.00
14880;PMS7003;7533;51.278;12.588;2022-12-07T04:03:06;2.25;2.25;0.75
14880;PMS7003;7533;51.278;12.588;2022-12-07T04:08:09;1.25;1.25;1.00
14880;PMS7003;7533;51.278;12.588;2022-12-07T04:13:12;1.00;1.00;0.00
14880;PMS7003;7533;51.278;12.588;2022-12-07T04:18:16;1.00;1.00;0.75
14880;PMS7003;7533;51.278;12.588;2022-12-07T04:23:19;2.00;1.00;0.75
14880;PMS7003;7533;51.278;12.588;2022-12-07T04:28:22;1.00;1.00;0.00
14880;PMS7003;7533;51.278;12.588;2022-12-07T04:33:26;3.25;2.00;1.00
14880;PMS7003;7533;51.278;12.588;2022-12-07T04:38:29;2.00;2.00;1.00
14880;PMS7003;7533;51.278;12.588;2022-12-07T04:43:32;1.00;1.00;1.00
14880;PMS7003;7533;51.278;12.588;2022-12-07T04:48:36;1.75;1.50;0.00
14880;PMS7003;7533;51.278;12.588;2022-12-07T04:53:39;1.25;1.25;0.75
14880;PMS7003;7533;51.278;12.588;2022-12-07T04:58:42;1.00;1.00;0.75
14880;PMS7003;7533;51.278;12.588;2022-12-07T05:03:48;1.25;1.00;0.00
14880;PMS7003;7533;51.278;12.588;2022-12-07T05:08:52;1.75;1.75;1.00
14880;PMS7003;7533;51.278;12.588;2022-12-07T05:13:55;1.00;1.00;0.00
14880;PMS7003;7533;51.278;12.588;2022-12-07T05:18:59;2.00;2.00;1.00
14880;PMS7003;7533;51.278;12.588;2022-12-07T05:24:02;2.00;1.25;0.00
14880;PMS7003;7533;51.278;12.588;2022-12-07T05:29:06;2.00;2.00;1.00
14880;PMS7003;7533;51.278;12.588;2022-12-07T05:34:10;1.00;1.00;0.00
14880;PMS7003;7533;51.278;12.588;2022-12-07T05:39:13;2.00;2.00;0.25
14880;PMS7003;7533;51.278;12.588;2022-12-07T05:44:16;1.50;1.50;0.25
14880;PMS7003;7533;51.278;12.588;2022-12-07T05:49:20;4.75;3.00;1.00
14880;PMS7003;7533;51.278;12.588;2022-12-07T05:54:23;1.00;1.00;0.00
14880;PMS7003;7533;51.278;12.588;2022-12-07T05:59:26;1.50;1.00;0.00
14880;PMS7003;7533;51.278;12.588;2022-12-07T06:04:32;1.50;0.75;0.00
14880;PMS7003;7533;51.278;12.588;2022-12-07T06:09:36;2.75;2.00;1.00
14880;PMS7003;7533;51.278;12.588;2022-12-07T06:14:39;1.50;1.50;0.00
14880;PMS7003;7533;51.278;12.588;2022-12-07T06:19:44;2.00;1.50;0.00
14880;PMS7003;7533;51.278;12.588;2022-12-07T06:24:47;1.25;1.25;0.25
14880;PMS7003;7533;51.278;12.588;2022-12-07T06:29:50;1.25;1.25;0.00
14880;PMS7003;7533;51.278;12.588;2022-12-07T06:34:54;1.75;1.75;1.00
14880;PMS7003;7533;51.278;12.588;2022-12-07T06:39:57;2.75;1.75;0.00
14880;PMS7003;7533;51.278;12.588;2022-12-07T06:45:00;1.00;1.00;0.00
14880;PMS7003;7533;51.278;12.588;2022-12-07T06:50:05;2.00;1.00;0.00
14880;PMS7003;7533;51.278;12.588;2022-12-07T06:55:09;1.00;1.00;0.00
14880;PMS7003;7533;51.278;12.588;2022-12-07T07:00:13;1.00;1.00;0.00
14880;PMS7003;7533;51.278;12.588;2022-12-07T07:05:24;2.25;1.00;0.25
14880;PMS7003;7533;51.278;12.588;2022-12-07T07:10:26;0.75;0.75;0.00
14880;PMS7003;7533;51.278;12.588;2022-12-07T07:15:29;1.75;1.75;0.25
14880;PMS7003;7533;51.278;12.588;2022-12-07T07:20:34;1.75;1.75;0.75
14880;PMS7003;7533;51.278;12.588;2022-12-07T07:25:37;3.00;2.00;0.75
14880;PMS7003;7533;51.278;12.588;2022-12-07T07:30:39;2.00;2.00;0.00
14880;PMS7003;7533;51.278;12.588;2022-12-07T07:35:44;2.00;2.00;1.00
14880;PMS7003;7533;51.278;12.588;2022-12-07T07:40:47;0.50;0.50;0.00
14880;PMS7003;7533;51.278;12.588;2022-12-07T07:45:49;0.75;0.75;0.00
14880;PMS7003;7533;51.278;12.588;2022-12-07T07:50:54;1.75;1.00;0.00
14880;PMS7003;7533;51.278;12.588;2022-12-07T07:55:56;0.75;0.75;0.00
14880;PMS7003;7533;51.278;12.588;2022-12-07T08:01:03;2.00;1.00;0.00
14880;PMS7003;7533;51.278;12.588;2022-12-07T08:06:08;2.75;1.75;0.00
14880;PMS7003;7533;51.278;12.588;2022-12-07T08:11:11;2.00;1.00;0.75
14880;PMS7003;7533;51.278;12.588;2022-12-07T08:16:14;2.00;2.00;0.00
14880;PMS7003;7533;51.278;12.588;2022-12-07T08:21:19;3.00;1.25;0.00
14880;PMS7003;7533;51.278;12.588;2022-12-07T08:26:22;1.00;1.00;0.00
14880;PMS7003;7533;51.278;12.588;2022-12-07T08:31:25;0.50;0.50;0.00
14880;PMS7003;7533;51.278;12.588;2022-12-07T08:36:30;1.00;1.00;0.00
14880;PMS7003;7533;51.278;12.588;2022-12-07T08:41:33;1.00;1.00;0.00
14880;PMS7003;7533;51.278;12.588;2022-12-07T08:46:36;0.75;0.75;0.00
14880;PMS7003;7533;51.278;12.588;2022-12-07T08:51:44;0.75;0.50;0.00
14880;PMS7003;7533;51.278;12.588;2022-12-07T08:56:48;0.00;0.00;0.00
14880;PMS7003;7533;51.278;12.588;2022-12-07T09:01:59;2.00;2.00;1.00
14880;PMS7003;7533;51.278;12.588;2022-12-07T09:07:03;2.00;2.00;0.75
14880;PMS7003;7533;51.278;12.588;2022-12-07T09:12:07;0.75;0.75;0.00
14880;PMS7003;7533;51.278;12.588;2022-12-07T09:17:10;1.00;1.00;0.00
14880;PMS7003;7533;51.278;12.588;2022-12-07T09:22:16;1.00;0.25;0.00
14880;PMS7003;7533;51.278;12.588;2022-12-07T09:27:18;13.75;10.00;6.00
14880;PMS7003;7533;51.278;12.588;2022-12-07T09:32:21;14.75;13.50;7.00
14880;PMS7003;7533;51.278;12.588;2022-12-07T09:37:27;15.75;14.00;7.50
14880;PMS7003;7533;51.278;12.588;2022-12-07T09:42:31;13.50;11.00;7.00
14880;PMS7003;7533;51.278;12.588;2022-12-07T09:47:37;9.00;9.00;4.50
14880;PMS7003;7533;51.278;12.588;2022-12-07T09:52:41;8.00;6.00;3.00
14880;PMS7003;7533;51.278;12.588;2022-12-07T09:57:46;7.25;5.75;3.50
14880;PMS7003;7533;51.278;12.588;2022-12-07T10:02:49;4.00;4.00;2.25
14880;PMS7003;7533;51.278;12.588;2022-12-07T10:07:57;7.25;6.00;3.00
14880;PMS7003;7533;51.278;12.588;2022-12-07T10:13:00;4.25;3.25;2.00
14880;PMS7003;7533;51.278;12.588;2022-12-07T10:18:13;5.00;3.00;1.00
14880;PMS7003;7533;51.278;12.588;2022-12-07T10:23:21;3.00;3.00;2.00
14880;PMS7003;7533;51.278;12.588;2022-12-07T10:28:27;2.25;2.25;2.00
14880;PMS7003;7533;51.278;12.588;2022-12-07T10:33:48;3.25;3.00;1.00
14880;PMS7003;7533;51.278;12.588;2022-12-07T10:38:58;1.50;1.50;0.25
14880;PMS7003;7533;51.278;12.588;2022-12-07T10:44:03;2.00;2.00;1.00
14880;PMS7003;7533;51.278;12.588;2022-12-07T10:49:08;1.25;1.00;0.00
14880;PMS7003;7533;51.278;12.588;2022-12-07T10:54:31;1.75;1.75;1.00
14880;PMS7003;7533;51.278;12.588;2022-12-07T10:59:57;1.00;1.00;0.00
14880;PMS7003;7533;51.278;12.588;2022-12-07T11:05:09;1.75;1.75;1.00
14880;PMS7003;7533;51.278;12.588;2022-12-07T11:10:28;5.00;4.50;1.50
14880;PMS7003;7533;51.278;12.588;2022-12-07T11:15:45;2.00;2.00;0.25
14880;PMS7003;7533;51.278;12.588;2022-12-07T11:20:59;4.50;2.50;1.00
14880;PMS7003;7533;51.278;12.588;2022-12-07T11:26:14;4.25;3.00;1.00
14880;PMS7003;7533;51.278;12.588;2022-12-07T11:31:28;2.00;2.00;0.00
14880;PMS7003;7533;51.278;12.588;2022-12-07T11:36:37;2.50;2.50;0.25
14880;PMS7003;7533;51.278;12.588;2022-12-07T11:41:45;2.50;2.50;1.00
14880;PMS7003;7533;51.278;12.588;2022-12-07T11:46:51;3.00;2.25;1.00
14880;PMS7003;7533;51.278;12.588;2022-12-07T11:52:00;3.00;1.50;0.00
14880;PMS7003;7533;51.278;12.588;2022-12-07T11:57:09;4.50;2.50;0.00
14880;PMS7003;7533;51.278;12.588;2022-12-07T12:02:22;3.50;3.50;0.25
14880;PMS7003;7533;51.278;12.588;2022-12-07T12:07:29;2.00;2.00;1.00
14880;PMS7003;7533;51.278;12.588;2022-12-07T12:13:02;2.75;1.75;0.50
14880;PMS7003;7533;51.278;12.588;2022-12-07T12:18:42;2.75;2.75;1.00
14880;PMS7003;7533;51.278;12.588;2022-12-07T12:23:56;4.25;2.75;1.00
14880;PMS7003;7533;51.278;12.588;2022-12-07T12:29:05;4.75;2.75;1.00
14880;PMS7003;7533;51.278;12.588;2022-12-07T12:34:30;4.00;3.00;1.00
14880;PMS7003;7533;51.278;12.588;2022-12-07T12:39:35;3.75;3.00;1.00
14880;PMS7003;7533;51.278;12.588;2022-12-07T12:44:40;3.25;2.75;1.25
14880;PMS7003;7533;51.278;12.588;2022-12-07T12:50:14;3.00;3.00;1.00
14880;PMS7003;7533;51.278;12.588;2022-12-07T13:06:34;3.00;3.00;1.25
14880;PMS7003;7533;51.278;12.588;2022-12-07T13:11:40;7.50;5.00;3.00
14880;PMS7003;7533;51.278;12.588;2022-12-07T13:16:48;9.25;7.50;3.00
14880;PMS7003;7533;51.278;12.588;2022-12-07T13:21:52;11.75;8.25;5.00
14880;PMS7003;7533;51.278;12.588;2022-12-07T13:26:55;9.75;8.25;5.00
14880;PMS7003;7533;51.278;12.588;2022-12-07T13:31:59;15.75;12.00;7.00
14880;PMS7003;7533;51.278;12.588;2022-12-07T13:37:04;12.75;12.75;8.00
14880;PMS7003;7533;51.278;12.588;2022-12-07T13:42:15;15.50;14.25;9.25
14880;PMS7003;7533;51.278;12.588;2022-12-07T13:47:31;21.25;18.25;10.25
14880;PMS7003;7533;51.278;12.588;2022-12-07T13:52:44;24.00;22.00;15.25
14880;PMS7003;7533;51.278;12.588;2022-12-07T13:57:48;22.25;22.00;14.50
14880;PMS7003;7533;51.278;12.588;2022-12-07T14:02:55;26.50;20.50;14.25
14880;PMS7003;7533;51.278;12.588;2022-12-07T14:08:02;22.75;21.50;14.75
14880;PMS7003;7533;51.278;12.588;2022-12-07T14:13:24;22.25;21.25;14.25
14880;PMS7003;7533;51.278;12.588;2022-12-07T14:18:36;20.50;20.00;13.25
14880;PMS7003;7533;51.278;12.588;2022-12-07T14:23:42;20.50;17.75;12.75
14880;PMS7003;7533;51.278;12.588;2022-12-07T14:28:45;21.50;19.50;12.00
14880;PMS7003;7533;51.278;12.588;2022-12-07T14:33:49;24.75;18.75;11.00
14880;PMS7003;7533;51.278;12.588;2022-12-07T14:38:53;22.00;20.00;11.50
14880;PMS7003;7533;51.278;12.588;2022-12-07T14:43:59;20.50;17.50;11.00
14880;PMS7003;7533;51.278;12.588;2022-12-07T14:49:22;20.75;17.75;10.00
14880;PMS7003;7533;51.278;12.588;2022-12-07T14:54:33;15.50;15.50;10.00
14880;PMS7003;7533;51.278;12.588;2022-12-07T14:59:36;18.25;14.50;9.00
14880;PMS7003;7533;51.278;12.588;2022-12-07T15:04:45;16.00;13.75;9.50
14880;PMS7003;7533;51.278;12.588;2022-12-07T15:09:49;13.50;13.00;8.25
14880;PMS7003;7533;51.278;12.588;2022-12-07T15:14:52;14.75;12.25;8.00
14880;PMS7003;7533;51.278;12.588;2022-12-07T15:19:55;15.75;14.00;7.00
14880;PMS7003;7533;51.278;12.588;2022-12-07T15:25:00;17.00;14.00;7.25
14880;PMS7003;7533;51.278;12.588;2022-12-07T15:30:03;13.00;10.75;6.75
14880;PMS7003;7533;51.278;12.588;2022-12-07T15:35:08;11.50;9.75;6.75
14880;PMS7003;7533;51.278;12.588;2022-12-07T15:40:14;13.25;11.25;7.00
14880;PMS7003;7533;51.278;12.588;2022-12-07T15:45:17;13.25;10.25;7.00
14880;PMS7003;7533;51.278;12.588;2022-12-07T15:50:20;13.00;13.00;7.75
14880;PMS7003;7533;51.278;12.588;2022-12-07T15:55:25;13.75;13.25;8.00
14880;PMS7003;7533;51.278;12.588;2022-12-07T16:00:28;12.00;10.50;6.50
14880;PMS7003;7533;51.278;12.588;2022-12-07T16:05:31;12.00;12.00;7.00
14880;PMS7003;7533;51.278;12.588;2022-12-07T16:10:36;13.00;11.75;8.25
14880;PMS7003;7533;51.278;12.588;2022-12-07T16:15:39;13.00;11.75;7.25
14880;PMS7003;7533;51.278;12.588;2022-12-07T16:20:42;10.75;10.00;6.25
14880;PMS7003;7533;51.278;12.588;2022-12-07T16:25:46;11.75;10.00;6.00
14880;PMS7003;7533;51.278;12.588;2022-12-07T16:30:49;11.00;10.50;6.00
14880;PMS7003;7533;51.278;12.588;2022-12-07T16:36:03;11.00;10.00;5.50
14880;PMS7003;7533;51.278;12.588;2022-12-07T16:41:09;9.50;7.75;6.25
14880;PMS7003;7533;51.278;12.588;2022-12-07T16:46:12;12.25;10.50;6.00
14880;PMS7003;7533;51.278;12.588;2022-12-07T16:51:16;10.50;9.75;6.00
14880;PMS7003;7533;51.278;12.588;2022-12-07T16:56:20;10.00;8.00;5.00
14880;PMS7003;7533;51.278;12.588;2022-12-07T17:01:23;11.67;8.00;6.00
14880;PMS7003;7533;51.278;12.588;2022-12-07T17:06:29;9.50;9.50;6.75
14880;PMS7003;7533;51.278;12.588;2022-12-07T17:11:33;9.25;8.25;5.25
14880;PMS7003;7533;51.278;12.588;2022-12-07T17:16:36;10.00;9.00;4.75
14880;PMS7003;7533;51.278;12.588;2022-12-07T17:21:40;12.25;11.00;5.75
14880;PMS7003;7533;51.278;12.588;2022-12-07T17:26:44;7.50;7.50;4.00
14880;PMS7003;7533;51.278;12.588;2022-12-07T17:31:48;9.00;8.00;5.00
14880;PMS7003;7533;51.278;12.588;2022-12-07T17:36:52;8.75;8.75;5.00
14880;PMS7003;7533;51.278;12.588;2022-12-07T17:41:57;8.75;7.50;4.00
14880;PMS7003;7533;51.278;12.588;2022-12-07T17:47:17;10.50;9.00;4.50
14880;PMS7003;7533;51.278;12.588;2022-12-07T17:52:21;8.50;7.75;4.25
14880;PMS7003;7533;51.278;12.588;2022-12-07T17:57:43;9.00;7.50;3.75
14880;PMS7003;7533;51.278;12.588;2022-12-07T18:02:46;6.75;6.50;3.50
14880;PMS7003;7533;51.278;12.588;2022-12-07T18:07:49;8.00;5.25;3.00
14880;PMS7003;7533;51.278;12.588;2022-12-07T18:12:54;9.25;8.25;4.25
14880;PMS7003;7533;51.278;12.588;2022-12-07T18:18:17;6.50;5.75;4.00
14880;PMS7003;7533;51.278;12.588;2022-12-07T18:23:20;7.25;5.50;4.00
14880;PMS7003;7533;51.278;12.588;2022-12-07T18:28:24;6.00;5.50;3.00
14880;PMS7003;7533;51.278;12.588;2022-12-07T18:33:27;7.25;5.50;3.25
14880;PMS7003;7533;51.278;12.588;2022-12-07T18:38:30;7.00;6.00;3.00
14880;PMS7003;7533;51.278;12.588;2022-12-07T18:43:35;8.25;6.75;3.50
14880;PMS7003;7533;51.278;12.588;2022-12-07T18:48:38;7.00;6.00;3.00
14880;PMS7003;7533;51.278;12.588;2022-12-07T18:53:41;5.25;4.00;2.25
14880;PMS7003;7533;51.278;12.588;2022-12-07T18:58:49;4.00;4.00;2.50
14880;PMS7003;7533;51.278;12.588;2022-12-07T19:04:10;7.00;7.00;2.50
14880;PMS7003;7533;51.278;12.588;2022-12-07T19:09:13;5.75;3.75;1.75
14880;PMS7003;7533;51.278;12.588;2022-12-07T19:14:25;4.75;4.75;2.75
14880;PMS7003;7533;51.278;12.588;2022-12-07T19:19:31;4.75;4.75;2.00
14880;PMS7003;7533;51.278;12.588;2022-12-07T19:24:35;6.25;4.50;2.50
14880;PMS7003;7533;51.278;12.588;2022-12-07T19:29:40;7.00;5.00;3.00
14880;PMS7003;7533;51.278;12.588;2022-12-07T19:34:44;5.00;3.75;2.00
14880;PMS7003;7533;51.278;12.588;2022-12-07T19:39:48;3.50;3.50;2.00
14880;PMS7003;7533;51.278;12.588;2022-12-07T19:44:53;4.25;3.50;1.25
14880;PMS7003;7533;51.278;12.588;2022-12-07T19:49:56;5.00;4.50;2.00
14880;PMS7003;7533;51.278;12.588;2022-12-07T19:54:59;5.00;3.50;2.00
14880;PMS7003;7533;51.278;12.588;2022-12-07T20:00:04;5.25;3.00;2.00
14880;PMS7003;7533;51.278;12.588;2022-12-07T20:05:08;3.00;2.75;1.00
14880;PMS7003;7533;51.278;12.588;2022-12-07T20:10:11;4.75;4.00;2.00
14880;PMS7003;7533;51.278;12.588;2022-12-07T20:15:15;3.75;3.75;1.50
14880;PMS7003;7533;51.278;12.588;2022-12-07T20:20:18;4.00;2.00;1.00
14880;PMS7003;7533;51.278;12.588;2022-12-07T20:25:21;3.25;3.25;1.75
14880;PMS7003;7533;51.278;12.588;2022-12-07T20:30:25;5.00;3.75;2.00
14880;PMS7003;7533;51.278;12.588;2022-12-07T20:35:29;4.00;3.75;1.25
14880;PMS7003;7533;51.278;12.588;2022-12-07T20:40:31;3.75;2.00;1.00
14880;PMS7003;7533;51.278;12.588;2022-12-07T20:45:36;3.25;2.25;1.00
14880;PMS7003;7533;51.278;12.588;2022-12-07T20:50:45;2.75;2.25;1.00
14880;PMS7003;7533;51.278;12.588;2022-12-07T20:55:48;2.00;2.00;1.00
14880;PMS7003;7533;51.278;12.588;2022-12-07T21:00:53;2.25;2.00;0.50
14880;PMS7003;7533;51.278;12.588;2022-12-07T21:06:01;4.00;3.00;1.00
14880;PMS7003;7533;51.278;12.588;2022-12-07T21:11:07;3.25;3.25;2.00
14880;PMS7003;7533;51.278;12.588;2022-12-07T21:16:12;3.25;3.00;1.00
14880;PMS7003;7533;51.278;12.588;2022-12-07T21:21:18;4.00;2.50;1.00
14880;PMS7003;7533;51.278;12.588;2022-12-07T21:26:22;2.00;2.00;1.00
14880;PMS7003;7533;51.278;12.588;2022-12-07T21:31:27;3.00;3.00;1.00
14880;PMS7003;7533;51.278;12.588;2022-12-07T21:36:31;3.00;2.75;1.00
14880;PMS7003;7533;51.278;12.588;2022-12-07T21:41:34;1.75;1.00;0.25
14880;PMS7003;7533;51.278;12.588;2022-12-07T21:46:39;3.25;2.75;1.00
14880;PMS7003;7533;51.278;12.588;2022-12-07T21:51:42;2.50;2.50;1.00
14880;PMS7003;7533;51.278;12.588;2022-12-07T21:56:45;1.50;1.50;0.25
14880;PMS7003;7533;51.278;12.588;2022-12-07T22:01:49;2.50;2.50;1.00
14880;PMS7003;7533;51.278;12.588;2022-12-07T22:06:53;2.25;2.00;1.00
14880;PMS7003;7533;51.278;12.588;2022-12-07T22:11:59;4.00;2.50;1.00
14880;PMS7003;7533;51.278;12.588;2022-12-07T22:17:03;2.00;2.00;1.00
14880;PMS7003;7533;51.278;12.588;2022-12-07T22:22:06;2.75;2.75;1.00
14880;PMS7003;7533;51.278;12.588;2022-12-07T22:27:09;3.00;2.00;1.00
14880;PMS7003;7533;51.278;12.588;2022-12-07T22:32:13;4.00;1.75;0.00
14880;PMS7003;7533;51.278;12.588;2022-12-07T22:37:36;1.00;1.00;0.25
14880;PMS7003;7533;51.278;12.588;2022-12-07T22:42:39;2.00;2.00;1.00
14880;PMS7003;7533;51.278;12.588;2022-12-07T22:47:43;0.75;0.75;0.00
14880;PMS7003;7533;51.278;12.588;2022-12-07T22:52:46;2.00;2.00;1.00
14880;PMS7003;7533;51.278;12.588;2022-12-07T22:57:49;2.50;1.75;0.75
14880;PMS7003;7533;51.278;12.588;2022-12-07T23:02:53;2.00;2.00;1.00
14880;PMS7003;7533;51.278;12.588;2022-12-07T23:07:56;2.75;1.75;0.00
14880;PMS7003;7533;51.278;12.588;2022-12-07T23:12:59;2.00;2.00;0.50
14880;PMS7003;7533;51.278;12.588;2022-12-07T23:18:21;3.00;2.25;1.00
14880;PMS7003;7533;51.278;12.588;2022-12-07T23:23:23;3.00;2.00;1.00
14880;PMS7003;7533;51.278;12.588;2022-12-07T23:28:26;2.00;2.00;1.00
14880;PMS7003;7533;51.278;12.588;2022-12-07T23:33:31;2.00;2.00;0.25
14880;PMS7003;7533;51.278;12.588;2022-12-07T23:38:34;1.00;1.00;0.00
14880;PMS7003;7533;51.278;12.588;2022-12-07T23:43:37;1.50;0.75;0.00
14880;PMS7003;7533;51.278;12.588;2022-12-07T23:48:43;1.50;1.00;0.00
14880;PMS7003;7533;51.278;12.588;2022-12-07T23:53:47;2.00;2.00;0.00
14880;PMS7003;7533;51.278;12.588;2022-12-07T23:58:52;1.50;1.00;0.25
